Lafayette, TN

10:45 PM CDT on August 24, 2016 (GMT -0500)
KTNLAFAY2 | | Change Station

Elev 922 ft 36.57 °N, 86.06 °W | Updated 8 seconds ago

Clear
Clear
74.0 °F
Feels Like 73 °F
N
0.0
Wind Variable Wind from SSW
Gusts 0.0 mph

Today
High -- | Low -- °F
--% Chance of Precip.
Yesterday
High -- | Low -- °F
Precip. -- in
Pressure 30.13 in
Visibility 10.0 miles
Clouds Clear
Heat Index 73 °F
Dew Point 70 °F
Humidity 86%
Rainfall 0.00 in
Snow Depth Not available.
6:09 AM 7:22 PM
Waning Gibbous, 50% visible
METAR KGLW 250335Z AUTO 19003KT 10SM CLR 25/24 A3013 RMK AO2 T02490241
Pressure 30.13 in
Visibility 10.0 miles
Clouds Clear
Heat Index 73 °F
Dew Point 70 °F
Humidity 86%
Rainfall 0.00 in
Snow Depth Not available.
6:09 AM 7:22 PM
Waning Gibbous, 50% visible
METAR KGLW 250335Z AUTO 19003KT 10SM CLR 25/24 A3013 RMK AO2 T02490241

10-Day Weather Forecast

Almanac

Astronomy

Aug. 24, 2016 Rise Set
Actual Time
Civil Twilight
Nautical Twilight
Astronomical Twilight
Moon
Length of Visible Light
Length of Day
Tomorrow will be .
, % of the Moon is Illuminated

Today's Extremes

State Highs State Lows

Community

WunderPhotos

Upload Photos

1,934,790 photos uploaded!

WunderBlog® & News

Nearby

Air Quality

  Air Quality AQ Index Pollutant
Not available.

Snow Depth

Station Depth Elevation

Earthquake Activity

City Distance Mag. Time & Date
Minimum magnitude displayed is 2.5.

Coastal Water Temperatures

Place Temperature

Stations

Nearby Weather Stations

Station Location Temp. Windchill Dew Point Humidity Wind Precip. Elev Updated Type
                   

Watches & Warnings

There are currently no watches in effect.